Time;durP1;ratioP1;P1;durP2;ratioP2;P2;SDS_P1;SDS_P2;PMS_P1;PMS_P2;Temp;Humidity;BMP_temperature;BMP_pressure;BME280_temperature;BME280_humidity;BME280_pressure;Samples;Min_cycle;Max_cycle;Signal;HPM_P1;HPM_P2
2023/05/27 00:04:35;;;;;;;13.63;6.07;;;;;;;;;;10301257;28;20047;-79
2023/05/27 00:09:37;;;;;;;11.43;5.80;;;;;;;;;;10305924;28;20524;-78
2023/05/27 00:14:40;;;;;;;12.55;5.90;;;;;;;;;;10294660;28;20126;-78
2023/05/27 00:19:45;;;;;;;14.57;6.03;;;;;;;;;;10298878;28;20039;-79
2023/05/27 00:24:47;;;;;;;14.63;6.40;;;;;;;;;;10303349;28;20073;-77
2023/05/27 00:29:50;;;;;;;17.70;6.35;;;;;;;;;;10302929;28;20045;-80
2023/05/27 00:34:54;;;;;;;12.88;6.60;;;;;;;;;;10302487;28;20415;-78
2023/05/27 00:39:56;;;;;;;;;;;;;;;;;;10301290;28;20052;-77
2023/05/27 00:44:58;;;;;;;15.05;7.10;;;;;;;;;;10302682;28;20421;-78
2023/05/27 00:50:03;;;;;;;14.98;6.65;;;;;;;;;;10294606;28;20047;-78
2023/05/27 00:55:07;;;;;;;12.93;5.65;;;;;;;;;;10303568;28;20046;-78
2023/05/27 01:00:11;;;;;;;13.07;6.47;;;;;;;;;;10300197;28;20121;-78
2023/05/27 01:05:15;;;;;;;14.45;6.10;;;;;;;;;;10306828;28;20069;-78
2023/05/27 01:10:23;;;;;;;18.88;7.40;;;;;;;;;;10298966;28;20046;-79
2023/05/27 01:15:26;;;;;;;14.20;6.05;;;;;;;;;;10297652;28;20041;-78
2023/05/27 01:20:31;;;;;;;13.87;6.83;;;;;;;;;;10305655;28;20130;-77
2023/05/27 01:25:35;;;;;;;16.88;6.40;;;;;;;;;;10310156;28;20314;-78
2023/05/27 01:30:38;;;;;;;18.90;7.20;;;;;;;;;;10299219;28;20077;-77
2023/05/27 01:35:42;;;;;;;14.73;6.47;;;;;;;;;;10303410;28;20045;-78
2023/05/27 01:40:47;;;;;;;15.45;6.93;;;;;;;;;;10304091;28;20125;-78
2023/05/27 01:45:49;;;;;;;18.67;7.10;;;;;;;;;;10310012;28;20035;-78
2023/05/27 01:50:52;;;;;;;18.60;7.45;;;;;;;;;;10293205;28;20065;-77
2023/05/27 01:55:56;;;;;;;11.35;6.97;;;;;;;;;;10301442;28;20564;-77
2023/05/27 02:00:59;;;;;;;;;;;;;;;;;;10301162;28;20069;-78
2023/05/27 02:06:01;;;;;;;13.27;6.72;;;;;;;;;;10301422;28;19936;-78
2023/05/27 02:11:05;;;;;;;12.15;6.47;;;;;;;;;;10299804;28;20030;-79
2023/05/27 02:16:08;;;;;;;15.95;6.75;;;;;;;;;;10298910;28;20039;-79
2023/05/27 02:21:11;;;;;;;15.18;6.70;;;;;;;;;;10301149;28;20049;-78
2023/05/27 02:26:15;;;;;;;12.20;6.95;;;;;;;;;;10296576;28;20437;-79
2023/05/27 02:31:18;;;;;;;;;;;;;;;;;;10297782;28;20558;-78
2023/05/27 02:36:22;;;;;;;14.00;6.72;;;;;;;;;;10303136;28;20179;-78
2023/05/27 02:41:26;;;;;;;12.85;6.30;;;;;;;;;;10304066;28;20042;-77
2023/05/27 02:46:28;;;;;;;;;;;;;;;;;;10301462;28;20077;-77
2023/05/27 02:51:31;;;;;;;14.32;7.22;;;;;;;;;;10301599;28;19922;-80
2023/05/27 02:56:35;;;;;;;15.27;6.75;;;;;;;;;;10307423;28;20125;-78
2023/05/27 03:01:37;;;;;;;;;;;;;;;;;;10296683;28;20478;-77
2023/05/27 03:06:40;;;;;;;13.50;6.90;;;;;;;;;;10306771;28;19928;-79
2023/05/27 03:11:44;;;;;;;15.57;7.57;;;;;;;;;;10303983;28;20059;-78
2023/05/27 03:16:46;;;;;;;;;;;;;;;;;;10306622;28;20119;-78
2023/05/27 03:21:49;;;;;;;16.70;7.38;;;;;;;;;;10299792;28;19930;-78
2023/05/27 03:26:56;;;;;;;14.80;5.68;;;;;;;;;;10301111;28;20420;-78
2023/05/27 03:31:59;;;;;;;16.00;6.55;;;;;;;;;;10306146;28;20634;-79
2023/05/27 03:37:02;;;;;;;15.13;7.00;;;;;;;;;;10301767;28;20133;-78
2023/05/27 03:42:06;;;;;;;16.30;6.68;;;;;;;;;;10301605;28;20594;-77
2023/05/27 03:47:09;;;;;;;14.82;6.53;;;;;;;;;;10300225;28;20114;-78
2023/05/27 03:52:12;;;;;;;11.05;5.78;;;;;;;;;;10297682;28;20129;-78
2023/05/27 03:57:16;;;;;;;15.63;6.63;;;;;;;;;;10310503;28;20041;-77
2023/05/27 04:02:18;;;;;;;15.05;6.10;;;;;;;;;;10304024;28;20520;-77
2023/05/27 04:07:26;;;;;;;13.82;6.30;;;;;;;;;;10300639;28;20107;-78
2023/05/27 04:12:30;;;;;;;11.25;5.43;;;;;;;;;;10307390;28;20042;-78
2023/05/27 04:17:33;;;;;;;15.75;6.30;;;;;;;;;;10312571;28;20080;-78
2023/05/27 04:22:36;;;;;;;16.60;6.80;;;;;;;;;;10304466;28;20045;-77
2023/05/27 04:27:40;;;;;;;14.35;6.72;;;;;;;;;;10308302;28;20031;-78
2023/05/27 04:32:43;;;;;;;15.32;6.28;;;;;;;;;;10310153;28;20507;-78
2023/05/27 04:37:47;;;;;;;15.85;6.32;;;;;;;;;;10305583;28;20384;-78
2023/05/27 04:42:50;;;;;;;;;;;;;;;;;;10302933;28;20054;-77
2023/05/27 04:47:54;;;;;;;15.70;6.00;;;;;;;;;;10305515;28;19926;-78
2023/05/27 04:52:56;;;;;;;12.63;5.65;;;;;;;;;;10398129;28;20058;-77
2023/05/27 04:58:03;;;;;;;14.95;6.00;;;;;;;;;;10298227;28;20129;-79
2023/05/27 05:03:08;;;;;;;11.40;5.65;;;;;;;;;;10307122;28;20054;-80
2023/05/27 05:08:11;;;;;;;9.80;5.28;;;;;;;;;;10303964;28;20125;-78
2023/05/27 05:13:14;;;;;;;15.48;5.90;;;;;;;;;;10298253;28;20046;-78
2023/05/27 05:18:18;;;;;;;12.63;5.40;;;;;;;;;;10299607;28;20073;-78
2023/05/27 05:23:21;;;;;;;12.70;5.75;;;;;;;;;;10304196;28;20039;-78
2023/05/27 05:28:23;;;;;;;13.20;5.47;;;;;;;;;;10304789;28;20054;-78
2023/05/27 05:33:27;;;;;;;12.88;4.93;;;;;;;;;;10301014;28;20045;-79
2023/05/27 05:38:30;;;;;;;12.10;5.07;;;;;;;;;;10305202;28;20049;-78
2023/05/27 05:43:33;;;;;;;14.30;5.37;;;;;;;;;;10303591;28;20062;-78
2023/05/27 05:48:37;;;;;;;12.68;5.53;;;;;;;;;;10305128;28;20625;-77
2023/05/27 05:53:40;;;;;;;12.95;5.50;;;;;;;;;;10303964;28;20066;-78
2023/05/27 05:58:42;;;;;;;10.27;5.13;;;;;;;;;;10304821;28;20524;-77
2023/05/27 06:03:46;;;;;;;11.50;4.82;;;;;;;;;;10306093;28;20078;-78
2023/05/27 06:08:50;;;;;;;9.40;4.55;;;;;;;;;;10288673;28;21982;-78
2023/05/27 06:13:52;;;;;;;9.65;4.45;;;;;;;;;;10295199;28;20042;-78
2023/05/27 06:18:56;;;;;;;11.25;5.38;;;;;;;;;;10306525;28;20469;-77
2023/05/27 06:23:59;;;;;;;11.77;5.15;;;;;;;;;;10309352;28;20498;-78
2023/05/27 06:29:01;;;;;;;8.85;4.32;;;;;;;;;;10306140;28;20038;-78
2023/05/27 06:34:05;;;;;;;13.10;4.65;;;;;;;;;;10306751;28;20051;-77
2023/05/27 06:39:08;;;;;;;11.73;4.90;;;;;;;;;;10309047;28;20035;-79
2023/05/27 06:44:11;;;;;;;12.07;3.80;;;;;;;;;;10306789;28;20098;-80
2023/05/27 06:49:15;;;;;;;10.52;4.13;;;;;;;;;;10314234;28;20419;-78
2023/05/27 06:54:18;;;;;;;9.18;3.85;;;;;;;;;;10305702;28;20042;-78
2023/05/27 06:59:20;;;;;;;10.82;4.13;;;;;;;;;;10312674;28;20042;-78
2023/05/27 07:04:24;;;;;;;10.75;3.33;;;;;;;;;;10314526;28;20607;-78
2023/05/27 07:09:27;;;;;;;10.30;3.60;;;;;;;;;;10305875;28;20050;-79
2023/05/27 07:14:29;;;;;;;8.38;3.60;;;;;;;;;;10291808;28;20042;-78
2023/05/27 07:19:33;;;;;;;8.10;3.57;;;;;;;;;;10300774;28;20120;-78
2023/05/27 07:24:36;;;;;;;9.88;3.80;;;;;;;;;;10304294;28;20504;-77
2023/05/27 07:29:39;;;;;;;11.83;3.90;;;;;;;;;;10301130;28;20404;-78
2023/05/27 07:34:43;;;;;;;9.30;4.00;;;;;;;;;;10293331;28;20116;-80
2023/05/27 07:39:45;;;;;;;11.30;3.67;;;;;;;;;;10305561;28;20329;-78
2023/05/27 07:44:48;;;;;;;9.47;3.60;;;;;;;;;;10311846;28;20062;-78
2023/05/27 07:49:52;;;;;;;12.07;4.25;;;;;;;;;;10302034;28;20130;-78
2023/05/27 07:54:56;;;;;;;9.88;4.45;;;;;;;;;;10297392;28;20086;-79
2023/05/27 07:59:58;;;;;;;9.52;4.65;;;;;;;;;;10318255;28;20510;-79
2023/05/27 08:05:03;;;;;;;9.38;5.15;;;;;;;;;;10302012;28;20493;-80
2023/05/27 08:10:07;;;;;;;10.25;4.25;;;;;;;;;;10294910;28;20125;-81
2023/05/27 08:15:10;;;;;;;10.18;4.50;;;;;;;;;;10301500;28;21131;-80
2023/05/27 08:20:14;;;;;;;9.23;4.60;;;;;;;;;;10310131;28;20047;-79
2023/05/27 08:25:17;;;;;;;10.88;5.07;;;;;;;;;;10312243;28;20044;-78
2023/05/27 08:30:19;;;;;;;9.07;4.45;;;;;;;;;;10301218;28;20035;-78
2023/05/27 08:35:23;;;;;;;10.40;4.80;;;;;;;;;;10293405;28;20038;-78
2023/05/27 08:40:26;;;;;;;11.32;5.30;;;;;;;;;;10294461;28;20166;-78
2023/05/27 08:45:31;;;;;;;9.48;4.75;;;;;;;;;;10303282;28;20048;-77
2023/05/27 08:50:35;;;;;;;10.95;5.00;;;;;;;;;;10299162;28;20126;-79
2023/05/27 08:55:38;;;;;;;10.55;5.18;;;;;;;;;;10297410;28;20101;-78
2023/05/27 09:00:41;;;;;;;10.18;5.38;;;;;;;;;;10295042;28;20077;-79
2023/05/27 09:05:45;;;;;;;12.43;5.25;;;;;;;;;;10295755;28;20062;-78
2023/05/27 09:10:48;;;;;;;9.98;5.55;;;;;;;;;;10299865;28;20054;-80
2023/05/27 09:15:58;;;;;;;12.07;5.82;;;;;;;;;;10298974;28;20034;-79
2023/05/27 09:21:02;;;;;;;11.43;5.35;;;;;;;;;;10297312;28;20043;-79
2023/05/27 09:26:08;;;;;;;9.00;5.43;;;;;;;;;;10301124;28;20508;-79
2023/05/27 09:31:11;;;;;;;11.52;5.35;;;;;;;;;;10307874;28;20062;-79
2023/05/27 09:36:20;;;;;;;11.48;5.38;;;;;;;;;;10299245;28;20134;-79
2023/05/27 09:41:24;;;;;;;10.63;5.72;;;;;;;;;;10304548;28;20053;-78
2023/05/27 09:46:28;;;;;;;11.05;6.10;;;;;;;;;;10295285;28;20134;-79
2023/05/27 09:51:32;;;;;;;8.38;5.93;;;;;;;;;;10302693;28;20050;-79
2023/05/27 09:56:35;;;;;;;8.50;5.43;;;;;;;;;;10308315;28;20058;-78
2023/05/27 10:01:40;;;;;;;10.82;5.78;;;;;;;;;;10304589;28;20123;-79
2023/05/27 10:06:45;;;;;;;9.55;6.13;;;;;;;;;;10300640;28;20133;-78
2023/05/27 10:11:48;;;;;;;9.98;6.30;;;;;;;;;;10308503;28;20060;-78
2023/05/27 10:16:54;;;;;;;11.60;6.40;;;;;;;;;;10309992;28;20100;-77
2023/05/27 10:22:07;;;;;;;9.65;5.60;;;;;;;;;;10303561;28;20463;-78
2023/05/27 10:27:10;;;;;;;8.40;5.35;;;;;;;;;;10312237;28;20050;-77
2023/05/27 10:32:13;;;;;;;9.38;5.50;;;;;;;;;;10307885;28;20138;-77
2023/05/27 10:37:22;;;;;;;8.38;5.05;;;;;;;;;;10306294;28;20051;-77
2023/05/27 10:42:24;;;;;;;;;;;;;;;;;;10302070;28;20042;-78
2023/05/27 10:47:29;;;;;;;9.82;5.50;;;;;;;;;;10309646;28;19968;-77
2023/05/27 10:52:36;;;;;;;8.10;4.88;;;;;;;;;;10298136;28;20169;-78
2023/05/27 10:57:39;;;;;;;9.80;5.40;;;;;;;;;;10304087;28;20105;-78
2023/05/27 11:02:43;;;;;;;8.77;5.50;;;;;;;;;;10297642;28;20043;-79
2023/05/27 11:07:47;;;;;;;7.65;5.28;;;;;;;;;;10297336;28;20137;-80
2023/05/27 11:12:50;;;;;;;8.88;4.93;;;;;;;;;;10301835;28;20075;-79
2023/05/27 11:17:53;;;;;;;10.85;5.20;;;;;;;;;;10304315;28;20077;-79
2023/05/27 11:22:57;;;;;;;9.40;4.70;;;;;;;;;;10303390;28;20313;-79
2023/05/27 11:28:00;;;;;;;9.00;4.90;;;;;;;;;;10308658;28;20377;-80
2023/05/27 11:33:03;;;;;;;9.20;5.13;;;;;;;;;;10306617;28;20535;-80
2023/05/27 11:38:16;;;;;;;7.50;4.80;;;;;;;;;;10307541;28;20078;-79
2023/05/27 11:43:19;;;;;;;8.75;4.80;;;;;;;;;;10303371;28;20049;-79
2023/05/27 11:48:22;;;;;;;9.27;4.28;;;;;;;;;;10302514;28;20050;-79
2023/05/27 11:53:28;;;;;;;11.88;4.38;;;;;;;;;;10301249;28;20129;-80
2023/05/27 11:58:31;;;;;;;8.50;4.43;;;;;;;;;;10299975;28;20035;-79
2023/05/27 12:03:34;;;;;;;9.65;4.93;;;;;;;;;;10301051;28;20054;-78
2023/05/27 12:08:38;;;;;;;7.05;4.20;;;;;;;;;;10302626;28;20051;-80
2023/05/27 12:13:41;;;;;;;8.05;4.05;;;;;;;;;;10304642;28;20064;-79
2023/05/27 12:18:45;;;;;;;11.25;4.28;;;;;;;;;;10301186;28;20039;-79
2023/05/27 12:23:49;;;;;;;7.63;3.85;;;;;;;;;;10304197;28;20119;-79
2023/05/27 12:28:52;;;;;;;7.05;4.00;;;;;;;;;;10304614;28;20049;-78
2023/05/27 12:33:54;;;;;;;7.72;3.90;;;;;;;;;;10309924;28;20481;-78
2023/05/27 12:38:59;;;;;;;7.30;4.25;;;;;;;;;;10313945;28;20497;-80
2023/05/27 12:44:02;;;;;;;9.70;4.20;;;;;;;;;;10300159;28;20043;-80
2023/05/27 12:49:07;;;;;;;7.68;3.92;;;;;;;;;;10301404;28;20074;-79
2023/05/27 12:54:11;;;;;;;10.60;3.63;;;;;;;;;;10301163;28;20548;-79
2023/05/27 12:59:14;;;;;;;11.35;4.00;;;;;;;;;;10305569;28;20091;-79
2023/05/27 13:04:17;;;;;;;7.35;3.92;;;;;;;;;;10299558;28;20426;-79
2023/05/27 13:09:21;;;;;;;9.95;3.70;;;;;;;;;;10308634;28;20083;-78
2023/05/27 13:14:27;;;;;;;7.70;3.40;;;;;;;;;;10302777;28;20047;-78
2023/05/27 13:19:31;;;;;;;7.70;3.63;;;;;;;;;;10316058;28;20046;-78
2023/05/27 13:24:35;;;;;;;6.90;3.63;;;;;;;;;;10305096;28;20061;-79
2023/05/27 13:29:40;;;;;;;6.20;3.50;;;;;;;;;;10309576;28;20133;-79
2023/05/27 13:34:43;;;;;;;8.65;3.20;;;;;;;;;;10299670;28;20054;-79
2023/05/27 13:39:47;;;;;;;8.77;3.30;;;;;;;;;;10311703;28;20085;-79
2023/05/27 13:44:51;;;;;;;8.63;3.53;;;;;;;;;;10299189;28;20065;-78
2023/05/27 13:49:54;;;;;;;9.98;4.13;;;;;;;;;;10301104;28;20451;-78
2023/05/27 13:54:58;;;;;;;9.00;3.70;;;;;;;;;;10304496;28;20050;-78
2023/05/27 14:00:01;;;;;;;10.60;3.30;;;;;;;;;;10307426;28;20066;-78
2023/05/27 14:05:06;;;;;;;6.47;3.35;;;;;;;;;;10297387;28;20131;-78
2023/05/27 14:10:10;;;;;;;8.10;3.53;;;;;;;;;;10298062;28;20562;-79
2023/05/27 14:15:13;;;;;;;7.32;2.90;;;;;;;;;;10296108;28;20051;-77
2023/05/27 14:20:17;;;;;;;10.18;3.33;;;;;;;;;;10301002;28;20070;-78
2023/05/27 14:25:21;;;;;;;8.73;3.50;;;;;;;;;;10302764;28;20206;-79
2023/05/27 14:30:25;;;;;;;6.80;3.35;;;;;;;;;;10301433;28;20425;-78
2023/05/27 14:35:28;;;;;;;6.07;3.17;;;;;;;;;;10303377;28;20564;-80
2023/05/27 14:40:33;;;;;;;9.02;3.20;;;;;;;;;;10310162;28;20216;-78
2023/05/27 14:45:36;;;;;;;5.50;2.95;;;;;;;;;;10309216;28;20074;-78
2023/05/27 14:50:39;;;;;;;9.68;3.10;;;;;;;;;;10305187;28;20121;-79
2023/05/27 14:55:51;;;;;;;6.97;2.70;;;;;;;;;;10299443;28;20112;-78
2023/05/27 15:00:56;;;;;;;9.05;3.55;;;;;;;;;;10303283;28;20118;-78
2023/05/27 15:05:59;;;;;;;6.80;3.80;;;;;;;;;;10301033;28;20061;-77
2023/05/27 15:11:04;;;;;;;6.65;3.08;;;;;;;;;;10309538;28;20031;-78
2023/05/27 15:16:07;;;;;;;5.65;3.00;;;;;;;;;;10305783;28;20096;-80
2023/05/27 15:21:10;;;;;;;9.32;3.38;;;;;;;;;;10301966;28;20040;-79
2023/05/27 15:26:14;;;;;;;7.53;2.92;;;;;;;;;;10301128;28;20092;-78
2023/05/27 15:31:17;;;;;;;5.72;2.35;;;;;;;;;;10298581;28;20431;-79
2023/05/27 15:36:20;;;;;;;6.43;3.00;;;;;;;;;;10300073;28;20058;-79
2023/05/27 15:41:25;;;;;;;13.45;4.28;;;;;;;;;;10298082;28;20057;-79
2023/05/27 15:46:29;;;;;;;6.63;2.50;;;;;;;;;;10302586;28;20127;-78
2023/05/27 15:51:32;;;;;;;8.85;2.75;;;;;;;;;;10306009;28;20100;-79
2023/05/27 15:56:36;;;;;;;5.88;2.30;;;;;;;;;;10309796;28;20106;-79
2023/05/27 16:01:40;;;;;;;5.47;2.50;;;;;;;;;;10305869;28;20508;-78
2023/05/27 16:06:43;;;;;;;5.82;2.38;;;;;;;;;;10310906;28;20516;-78
2023/05/27 16:11:49;;;;;;;8.20;2.75;;;;;;;;;;10310280;28;20042;-76
2023/05/27 16:16:52;;;;;;;5.97;2.40;;;;;;;;;;10313856;28;20110;-79
2023/05/27 16:21:55;;;;;;;6.20;2.25;;;;;;;;;;10317370;28;20124;-79
2023/05/27 16:27:00;;;;;;;5.78;2.25;;;;;;;;;;10319625;28;20117;-78
2023/05/27 16:32:03;;;;;;;5.85;2.15;;;;;;;;;;10306956;28;20598;-78
2023/05/27 16:37:09;;;;;;;5.93;2.30;;;;;;;;;;10310612;28;20054;-78
2023/05/27 16:42:14;;;;;;;5.43;2.03;;;;;;;;;;10301218;28;20034;-79
2023/05/27 16:47:16;;;;;;;6.05;2.45;;;;;;;;;;10306768;28;20050;-78
2023/05/27 16:52:19;;;;;;;6.03;2.28;;;;;;;;;;10306830;28;20047;-79
2023/05/27 16:57:24;;;;;;;6.72;2.17;;;;;;;;;;10311342;28;20466;-79
2023/05/27 17:02:28;;;;;;;5.57;2.17;;;;;;;;;;10304047;28;20046;-79
2023/05/27 17:07:31;;;;;;;8.07;2.20;;;;;;;;;;10304509;28;20085;-79
2023/05/27 17:12:35;;;;;;;5.90;2.45;;;;;;;;;;10313350;28;20129;-79
2023/05/27 17:17:38;;;;;;;5.00;2.00;;;;;;;;;;10300753;28;20493;-79
2023/05/27 17:22:40;;;;;;;4.93;2.20;;;;;;;;;;10301387;28;20066;-79
2023/05/27 17:27:43;;;;;;;;;;;;;;;;;;10302606;28;20066;-79
2023/05/27 17:32:49;;;;;;;6.63;2.15;;;;;;;;;;10306050;28;20485;-79
2023/05/27 17:37:52;;;;;;;3.92;1.90;;;;;;;;;;10308041;28;20050;-79
2023/05/27 17:42:55;;;;;;;6.70;2.30;;;;;;;;;;10300659;28;20564;-79
2023/05/27 17:48:00;;;;;;;8.18;2.13;;;;;;;;;;10304794;28;20512;-79
2023/05/27 17:53:03;;;;;;;6.72;2.10;;;;;;;;;;10306970;28;20142;-80
2023/05/27 17:58:06;;;;;;;5.80;2.28;;;;;;;;;;10307897;28;20203;-78
2023/05/27 18:03:10;;;;;;;6.82;1.90;;;;;;;;;;10300569;28;20608;-80
2023/05/27 18:08:13;;;;;;;4.35;1.85;;;;;;;;;;10306819;28;20531;-78
2023/05/27 18:13:16;;;;;;;6.57;2.88;;;;;;;;;;10317067;28;20066;-78
2023/05/27 18:18:21;;;;;;;9.83;3.23;;;;;;;;;;10307981;28;20054;-78
2023/05/27 18:23:23;;;;;;;7.30;3.67;;;;;;;;;;10304600;28;20129;-79
2023/05/27 18:28:26;;;;;;;6.63;2.15;;;;;;;;;;10311393;28;20052;-78
2023/05/27 18:33:30;;;;;;;5.57;1.97;;;;;;;;;;10318317;28;20046;-79
2023/05/27 18:38:34;;;;;;;7.35;2.33;;;;;;;;;;10316188;28;20047;-78
2023/05/27 18:43:37;;;;;;;6.00;2.42;;;;;;;;;;10316856;28;20038;-79
2023/05/27 18:48:42;;;;;;;7.45;2.90;;;;;;;;;;10317050;28;20487;-79
2023/05/27 18:53:45;;;;;;;8.43;2.92;;;;;;;;;;10318896;28;20073;-80
2023/05/27 18:58:47;;;;;;;6.20;2.23;;;;;;;;;;10325549;28;20049;-82
2023/05/27 19:03:52;;;;;;;7.93;2.42;;;;;;;;;;10308449;28;20042;-80
2023/05/27 19:08:54;;;;;;;6.45;2.30;;;;;;;;;;10317106;28;20047;-81
2023/05/27 19:13:57;;;;;;;6.20;2.33;;;;;;;;;;10303851;28;20085;-80
2023/05/27 19:19:01;;;;;;;6.47;2.07;;;;;;;;;;10303839;28;20066;-79
2023/05/27 19:24:05;;;;;;;8.93;2.25;;;;;;;;;;10306411;28;20042;-80
2023/05/27 19:29:08;;;;;;;9.07;2.60;;;;;;;;;;10310591;28;20050;-78
2023/05/27 19:34:12;;;;;;;7.18;2.15;;;;;;;;;;10298500;28;20067;-77
2023/05/27 19:39:17;;;;;;;7.05;2.60;;;;;;;;;;10319802;28;20085;-78
2023/05/27 19:44:20;;;;;;;7.15;2.50;;;;;;;;;;10307419;28;20137;-80
2023/05/27 19:49:23;;;;;;;;;;;;;;;;;;10292272;28;20074;-78
2023/05/27 19:54:27;;;;;;;5.47;1.95;;;;;;;;;;10310255;28;19928;-78
2023/05/27 19:59:30;;;;;;;6.05;2.33;;;;;;;;;;10332346;28;20562;-78
2023/05/27 20:04:33;;;;;;;5.80;2.50;;;;;;;;;;10316285;28;20124;-81
2023/05/27 20:09:37;;;;;;;7.68;2.40;;;;;;;;;;10308900;28;20045;-79
2023/05/27 20:14:39;;;;;;;7.45;2.97;;;;;;;;;;10294540;28;20173;-83
2023/05/27 20:19:42;;;;;;;7.77;2.80;;;;;;;;;;10305904;28;20212;-80
2023/05/27 20:24:46;;;;;;;6.50;2.70;;;;;;;;;;10305637;28;20046;-80
2023/05/27 20:29:49;;;;;;;6.50;2.90;;;;;;;;;;10287645;28;20042;-83
2023/05/27 20:34:54;;;;;;;6.87;2.30;;;;;;;;;;10295206;28;20052;-83
2023/05/27 20:39:58;;;;;;;6.80;2.47;;;;;;;;;;10310028;28;20034;-81
2023/05/27 20:45:01;;;;;;;5.60;2.83;;;;;;;;;;10308647;28;20129;-78
2023/05/27 20:50:04;;;;;;;5.68;2.83;;;;;;;;;;10304062;28;20029;-80
2023/05/27 20:55:08;;;;;;;7.75;2.97;;;;;;;;;;10307218;28;20497;-78
2023/05/27 21:00:12;;;;;;;7.15;2.90;;;;;;;;;;10304727;28;20074;-79
2023/05/27 21:05:14;;;;;;;8.33;2.63;;;;;;;;;;10303618;28;20039;-79
2023/05/27 21:10:19;;;;;;;7.37;2.93;;;;;;;;;;10306417;28;20309;-79
2023/05/27 21:15:22;;;;;;;5.88;2.83;;;;;;;;;;10302062;28;20364;-80
2023/05/27 21:20:25;;;;;;;7.30;2.80;;;;;;;;;;10307035;28;20038;-80
2023/05/27 21:25:29;;;;;;;7.05;2.58;;;;;;;;;;10309038;28;20329;-80
2023/05/27 21:30:32;;;;;;;8.63;2.88;;;;;;;;;;10310424;28;20428;-79
2023/05/27 21:35:35;;;;;;;7.73;2.80;;;;;;;;;;10304053;28;20130;-80
2023/05/27 21:40:39;;;;;;;8.80;3.13;;;;;;;;;;10303277;28;20043;-79
2023/05/27 21:45:43;;;;;;;9.18;2.75;;;;;;;;;;10309330;28;20120;-79
2023/05/27 21:50:48;;;;;;;6.87;2.60;;;;;;;;;;10317066;28;20102;-80
2023/05/27 21:55:52;;;;;;;14.70;2.85;;;;;;;;;;10312606;28;20504;-82
2023/05/27 22:00:55;;;;;;;6.88;3.08;;;;;;;;;;10310328;28;20047;-80
2023/05/27 22:05:59;;;;;;;7.40;2.85;;;;;;;;;;10312486;28;20453;-80
2023/05/27 22:11:03;;;;;;;7.67;3.10;;;;;;;;;;10312470;28;20070;-81
2023/05/27 22:16:06;;;;;;;8.35;3.00;;;;;;;;;;10303911;28;20137;-80
2023/05/27 22:21:09;;;;;;;9.05;2.97;;;;;;;;;;10306638;28;20644;-80
2023/05/27 22:26:31;;;;;;;7.63;3.00;;;;;;;;;;10310477;28;20532;-80
2023/05/27 22:31:34;;;;;;;6.63;3.00;;;;;;;;;;10312383;28;20041;-80
2023/05/27 22:36:37;;;;;;;8.53;3.17;;;;;;;;;;10305817;28;20124;-80
2023/05/27 22:41:41;;;;;;;8.95;3.40;;;;;;;;;;10307445;28;20417;-81
2023/05/27 22:46:44;;;;;;;;;;;;;;;;;;10305218;28;20143;-80
2023/05/27 22:51:47;;;;;;;54.63;19.23;;;;;;;;;;10322351;28;19930;-80
2023/05/27 22:56:51;;;;;;;7.03;3.50;;;;;;;;;;10294545;28;20058;-79
2023/05/27 23:01:54;;;;;;;6.28;2.95;;;;;;;;;;10303526;28;20493;-79
2023/05/27 23:06:56;;;;;;;9.68;3.00;;;;;;;;;;10302584;28;20671;-79
2023/05/27 23:12:01;;;;;;;7.60;2.55;;;;;;;;;;10308351;28;20042;-81
2023/05/27 23:17:04;;;;;;;13.55;3.03;;;;;;;;;;10308787;28;20050;-80
2023/05/27 23:22:06;;;;;;;7.63;3.23;;;;;;;;;;10301762;28;20053;-81
2023/05/27 23:27:11;;;;;;;9.45;2.67;;;;;;;;;;10303070;28;20394;-82
2023/05/27 23:32:13;;;;;;;12.18;3.42;;;;;;;;;;10302339;28;20049;-81
2023/05/27 23:37:16;;;;;;;7.07;2.80;;;;;;;;;;10307981;28;20125;-80
2023/05/27 23:42:20;;;;;;;9.02;2.97;;;;;;;;;;10284289;28;21947;-80
2023/05/27 23:47:24;;;;;;;5.90;2.90;;;;;;;;;;10302579;28;20108;-81
2023/05/27 23:52:26;;;;;;;8.48;2.70;;;;;;;;;;10311866;28;20053;-79
2023/05/27 23:57:30;;;;;;;10.68;3.22;;;;;;;;;;10301655;28;20126;-80
